sensor_id;sensor_type;location;lat;lon;timestamp;pressure;altitude;pressure_sealevel;temperature;humidity
11808;BME280;5961;42.640;23.380;2023-03-15T00:01:25;93057.81;;;7.61;43.28
11808;BME280;5961;42.640;23.380;2023-03-15T00:03:52;93055.50;;;7.59;43.32
11808;BME280;5961;42.640;23.380;2023-03-15T00:06:20;93051.75;;;7.60;43.01
11808;BME280;5961;42.640;23.380;2023-03-15T00:08:47;93044.59;;;7.61;43.15
11808;BME280;5961;42.640;23.380;2023-03-15T00:11:14;93038.19;;;7.62;42.96
11808;BME280;5961;42.640;23.380;2023-03-15T00:13:41;93036.41;;;7.66;42.90
11808;BME280;5961;42.640;23.380;2023-03-15T00:16:10;93033.78;;;7.66;42.72
11808;BME280;5961;42.640;23.380;2023-03-15T00:18:42;93042.75;;;7.61;43.04
11808;BME280;5961;42.640;23.380;2023-03-15T00:21:09;93044.25;;;7.62;43.33
11808;BME280;5961;42.640;23.380;2023-03-15T00:23:36;93048.34;;;7.60;42.91
11808;BME280;5961;42.640;23.380;2023-03-15T00:26:03;93043.72;;;7.57;42.80
11808;BME280;5961;42.640;23.380;2023-03-15T00:28:29;93051.66;;;7.57;42.88
11808;BME280;5961;42.640;23.380;2023-03-15T00:31:04;93054.56;;;7.52;42.76
11808;BME280;5961;42.640;23.380;2023-03-15T00:33:33;93056.94;;;7.57;42.44
11808;BME280;5961;42.640;23.380;2023-03-15T00:36:02;93048.38;;;7.48;42.38
11808;BME280;5961;42.640;23.380;2023-03-15T00:38:28;93029.78;;;7.44;42.44
11808;BME280;5961;42.640;23.380;2023-03-15T00:40:56;93039.13;;;7.54;42.72
11808;BME280;5961;42.640;23.380;2023-03-15T00:43:23;93035.03;;;7.56;42.71
11808;BME280;5961;42.640;23.380;2023-03-15T00:45:49;93036.91;;;7.56;42.17
11808;BME280;5961;42.640;23.380;2023-03-15T00:48:16;93040.22;;;7.53;42.89
11808;BME280;5961;42.640;23.380;2023-03-15T00:50:44;93030.00;;;7.51;42.33
11808;BME280;5961;42.640;23.380;2023-03-15T00:53:11;93028.00;;;7.48;42.57
11808;BME280;5961;42.640;23.380;2023-03-15T00:55:37;93028.34;;;7.47;42.91
11808;BME280;5961;42.640;23.380;2023-03-15T00:58:04;93024.59;;;7.48;42.83
11808;BME280;5961;42.640;23.380;2023-03-15T01:00:31;92925.09;;;6.84;42.44
11808;BME280;5961;42.640;23.380;2023-03-15T01:02:57;93024.19;;;7.46;42.38
11808;BME280;5961;42.640;23.380;2023-03-15T01:05:24;93016.66;;;7.48;42.73
11808;BME280;5961;42.640;23.380;2023-03-15T01:07:53;93007.81;;;7.56;42.72
11808;BME280;5961;42.640;23.380;2023-03-15T01:10:19;93008.00;;;7.63;42.28
11808;BME280;5961;42.640;23.380;2023-03-15T01:12:46;93007.75;;;7.68;42.16
11808;BME280;5961;42.640;23.380;2023-03-15T01:15:13;93006.25;;;7.67;42.09
11808;BME280;5961;42.640;23.380;2023-03-15T01:17:41;93003.69;;;7.70;42.59
11808;BME280;5961;42.640;23.380;2023-03-15T01:20:10;92995.41;;;7.72;42.70
11808;BME280;5961;42.640;23.380;2023-03-15T01:22:37;92981.00;;;7.69;42.55
11808;BME280;5961;42.640;23.380;2023-03-15T01:25:06;92978.84;;;7.75;42.71
11808;BME280;5961;42.640;23.380;2023-03-15T01:27:33;92983.28;;;7.71;43.16
11808;BME280;5961;42.640;23.380;2023-03-15T01:30:00;92984.16;;;7.75;43.35
11808;BME280;5961;42.640;23.380;2023-03-15T01:32:27;92983.28;;;7.71;43.38
11808;BME280;5961;42.640;23.380;2023-03-15T01:34:53;92992.66;;;7.68;43.65
11808;BME280;5961;42.640;23.380;2023-03-15T01:37:20;92988.06;;;7.65;43.39
11808;BME280;5961;42.640;23.380;2023-03-15T01:39:49;92969.69;;;7.57;43.20
11808;BME280;5961;42.640;23.380;2023-03-15T01:42:17;92972.75;;;7.59;43.38
11808;BME280;5961;42.640;23.380;2023-03-15T01:44:48;92960.69;;;7.58;43.67
11808;BME280;5961;42.640;23.380;2023-03-15T01:47:16;92973.53;;;7.59;43.82
11808;BME280;5961;42.640;23.380;2023-03-15T01:49:43;92976.69;;;7.65;43.70
11808;BME280;5961;42.640;23.380;2023-03-15T01:52:15;92963.47;;;7.65;43.67
11808;BME280;5961;42.640;23.380;2023-03-15T01:54:45;92959.06;;;7.69;43.75
11808;BME280;5961;42.640;23.380;2023-03-15T01:57:18;92954.44;;;7.66;43.34
11808;BME280;5961;42.640;23.380;2023-03-15T01:59:50;92954.13;;;7.67;44.11
11808;BME280;5961;42.640;23.380;2023-03-15T02:02:19;92956.59;;;7.76;43.75
11808;BME280;5961;42.640;23.380;2023-03-15T02:04:50;92950.63;;;7.79;44.20
11808;BME280;5961;42.640;23.380;2023-03-15T02:07:19;92955.31;;;7.86;44.21
11808;BME280;5961;42.640;23.380;2023-03-15T02:09:52;92951.25;;;7.88;44.17
11808;BME280;5961;42.640;23.380;2023-03-15T02:12:22;92945.94;;;7.88;44.49
11808;BME280;5961;42.640;23.380;2023-03-15T02:14:50;92932.53;;;7.97;43.94
11808;BME280;5961;42.640;23.380;2023-03-15T02:17:19;92923.41;;;7.94;44.53
11808;BME280;5961;42.640;23.380;2023-03-15T02:19:55;92912.31;;;8.04;44.43
11808;BME280;5961;42.640;23.380;2023-03-15T02:22:30;92914.72;;;8.09;44.65
11808;BME280;5961;42.640;23.380;2023-03-15T02:25:07;92913.75;;;8.17;44.05
11808;BME280;5961;42.640;23.380;2023-03-15T02:27:39;92913.06;;;8.20;44.21
11808;BME280;5961;42.640;23.380;2023-03-15T02:30:07;92862.06;;;7.89;44.11
11808;BME280;5961;42.640;23.380;2023-03-15T02:32:35;92916.97;;;8.26;43.87
11808;BME280;5961;42.640;23.380;2023-03-15T02:35:02;92909.94;;;8.31;44.56
11808;BME280;5961;42.640;23.380;2023-03-15T02:37:29;92909.47;;;8.28;44.53
11808;BME280;5961;42.640;23.380;2023-03-15T02:39:56;92920.31;;;8.23;44.41
11808;BME280;5961;42.640;23.380;2023-03-15T02:42:22;92914.94;;;8.20;44.89
11808;BME280;5961;42.640;23.380;2023-03-15T02:44:52;92884.84;;;7.93;45.65
11808;BME280;5961;42.640;23.380;2023-03-15T02:47:24;92909.75;;;8.08;45.79
11808;BME280;5961;42.640;23.380;2023-03-15T02:49:52;92917.50;;;8.01;45.97
11808;BME280;5961;42.640;23.380;2023-03-15T02:52:20;92912.47;;;7.96;46.14
11808;BME280;5961;42.640;23.380;2023-03-15T02:54:46;92918.13;;;7.94;46.61
11808;BME280;5961;42.640;23.380;2023-03-15T02:57:15;92909.75;;;7.92;46.75
11808;BME280;5961;42.640;23.380;2023-03-15T02:59:43;92902.94;;;7.91;46.78
11808;BME280;5961;42.640;23.380;2023-03-15T03:02:11;92909.06;;;7.95;46.77
11808;BME280;5961;42.640;23.380;2023-03-15T03:04:38;92908.28;;;7.95;46.80
11808;BME280;5961;42.640;23.380;2023-03-15T03:07:06;92870.69;;;7.70;46.39
11808;BME280;5961;42.640;23.380;2023-03-15T03:09:33;92892.69;;;7.90;46.23
11808;BME280;5961;42.640;23.380;2023-03-15T03:11:59;92888.25;;;7.94;46.28
11808;BME280;5961;42.640;23.380;2023-03-15T03:14:26;92878.78;;;7.93;46.55
11808;BME280;5961;42.640;23.380;2023-03-15T03:16:53;92873.66;;;7.84;47.31
11808;BME280;5961;42.640;23.380;2023-03-15T03:19:21;92878.59;;;7.86;47.21
11808;BME280;5961;42.640;23.380;2023-03-15T03:21:50;92882.72;;;7.83;46.83
11808;BME280;5961;42.640;23.380;2023-03-15T03:24:17;92876.00;;;7.70;46.59
11808;BME280;5961;42.640;23.380;2023-03-15T03:26:45;92880.41;;;7.66;47.23
11808;BME280;5961;42.640;23.380;2023-03-15T03:29:12;92822.94;;;7.16;48.14
11808;BME280;5961;42.640;23.380;2023-03-15T03:31:41;92867.78;;;7.44;48.48
11808;BME280;5961;42.640;23.380;2023-03-15T03:34:08;92866.94;;;7.40;49.18
11808;BME280;5961;42.640;23.380;2023-03-15T03:36:36;92854.56;;;7.28;49.63
11808;BME280;5961;42.640;23.380;2023-03-15T03:39:03;92858.41;;;7.31;49.97
11808;BME280;5961;42.640;23.380;2023-03-15T03:41:30;92862.16;;;7.30;49.85
11808;BME280;5961;42.640;23.380;2023-03-15T03:43:56;92864.47;;;7.31;49.93
11808;BME280;5961;42.640;23.380;2023-03-15T03:46:24;92857.72;;;7.34;50.30
11808;BME280;5961;42.640;23.380;2023-03-15T03:48:52;92857.28;;;7.32;50.72
11808;BME280;5961;42.640;23.380;2023-03-15T03:51:19;92852.75;;;7.32;50.76
11808;BME280;5961;42.640;23.380;2023-03-15T03:53:47;92852.25;;;7.27;51.46
11808;BME280;5961;42.640;23.380;2023-03-15T03:56:14;92846.09;;;7.23;51.83
11808;BME280;5961;42.640;23.380;2023-03-15T03:58:40;92845.06;;;7.11;52.26
11808;BME280;5961;42.640;23.380;2023-03-15T04:01:07;92845.94;;;7.15;52.27
11808;BME280;5961;42.640;23.380;2023-03-15T04:03:34;92851.47;;;7.10;53.07
11808;BME280;5961;42.640;23.380;2023-03-15T04:06:01;92837.31;;;7.03;53.59
11808;BME280;5961;42.640;23.380;2023-03-15T04:08:29;92838.25;;;7.10;53.67
11808;BME280;5961;42.640;23.380;2023-03-15T04:10:58;92840.66;;;7.15;53.81
11808;BME280;5961;42.640;23.380;2023-03-15T04:13:28;92895.47;;;7.18;53.94
11808;BME280;5961;42.640;23.380;2023-03-15T04:15:55;92831.38;;;7.22;54.13
11808;BME280;5961;42.640;23.380;2023-03-15T04:18:23;92829.56;;;7.26;54.46
11808;BME280;5961;42.640;23.380;2023-03-15T04:20:50;92813.13;;;7.16;55.10
11808;BME280;5961;42.640;23.380;2023-03-15T04:23:19;92828.06;;;7.25;55.68
11808;BME280;5961;42.640;23.380;2023-03-15T04:25:47;92824.34;;;7.13;56.40
11808;BME280;5961;42.640;23.380;2023-03-15T04:28:15;92818.25;;;7.09;56.71
11808;BME280;5961;42.640;23.380;2023-03-15T04:30:43;92827.63;;;7.07;57.28
11808;BME280;5961;42.640;23.380;2023-03-15T04:33:10;92808.31;;;6.91;56.77
11808;BME280;5961;42.640;23.380;2023-03-15T04:35:37;92819.66;;;6.91;56.31
11808;BME280;5961;42.640;23.380;2023-03-15T04:38:04;92814.19;;;6.84;56.43
11808;BME280;5961;42.640;23.380;2023-03-15T04:40:32;92820.06;;;6.93;56.33
11808;BME280;5961;42.640;23.380;2023-03-15T04:43:01;92824.78;;;7.00;56.49
11808;BME280;5961;42.640;23.380;2023-03-15T04:45:30;92827.53;;;7.03;56.81
11808;BME280;5961;42.640;23.380;2023-03-15T04:47:57;92821.56;;;7.06;56.98
11808;BME280;5961;42.640;23.380;2023-03-15T04:50:25;92813.19;;;7.04;56.51
11808;BME280;5961;42.640;23.380;2023-03-15T04:52:51;92828.13;;;7.12;56.90
11808;BME280;5961;42.640;23.380;2023-03-15T04:55:18;92827.00;;;7.13;56.82
11808;BME280;5961;42.640;23.380;2023-03-15T04:57:45;92809.72;;;7.00;57.31
11808;BME280;5961;42.640;23.380;2023-03-15T05:00:13;92777.91;;;6.81;57.38
11808;BME280;5961;42.640;23.380;2023-03-15T05:02:41;92780.03;;;6.91;57.21
11808;BME280;5961;42.640;23.380;2023-03-15T05:05:08;92830.34;;;7.26;57.45
11808;BME280;5961;42.640;23.380;2023-03-15T05:07:36;92834.19;;;7.29;57.40
11808;BME280;5961;42.640;23.380;2023-03-15T05:10:03;92832.38;;;7.17;57.98
11808;BME280;5961;42.640;23.380;2023-03-15T05:12:31;92797.41;;;6.77;58.38
11808;BME280;5961;42.640;23.380;2023-03-15T05:14:58;92828.00;;;6.93;58.56
11808;BME280;5961;42.640;23.380;2023-03-15T05:17:25;92824.06;;;6.87;59.25
11808;BME280;5961;42.640;23.380;2023-03-15T05:19:53;92821.84;;;6.89;59.69
11808;BME280;5961;42.640;23.380;2023-03-15T05:22:20;92828.16;;;6.85;59.28
11808;BME280;5961;42.640;23.380;2023-03-15T05:24:50;92825.94;;;6.87;59.36
11808;BME280;5961;42.640;23.380;2023-03-15T05:27:18;92827.81;;;6.86;59.68
11808;BME280;5961;42.640;23.380;2023-03-15T05:29:45;92825.00;;;6.79;59.83
11808;BME280;5961;42.640;23.380;2023-03-15T05:32:12;92821.63;;;6.94;60.03
11808;BME280;5961;42.640;23.380;2023-03-15T05:34:38;92816.50;;;7.01;60.01
11808;BME280;5961;42.640;23.380;2023-03-15T05:37:08;92818.25;;;7.09;59.25
11808;BME280;5961;42.640;23.380;2023-03-15T05:39:36;92808.50;;;7.13;58.79
11808;BME280;5961;42.640;23.380;2023-03-15T05:42:03;92811.34;;;7.21;58.76
11808;BME280;5961;42.640;23.380;2023-03-15T05:44:30;92816.13;;;7.31;57.96
11808;BME280;5961;42.640;23.380;2023-03-15T05:46:57;92812.44;;;7.35;58.44
11808;BME280;5961;42.640;23.380;2023-03-15T05:49:23;92807.53;;;7.49;58.10
11808;BME280;5961;42.640;23.380;2023-03-15T05:51:50;92791.56;;;7.46;57.35
11808;BME280;5961;42.640;23.380;2023-03-15T05:54:18;92806.84;;;7.52;57.19
11808;BME280;5961;42.640;23.380;2023-03-15T05:56:45;92804.44;;;7.47;57.40
11808;BME280;5961;42.640;23.380;2023-03-15T05:59:12;92813.47;;;7.62;56.81
11808;BME280;5961;42.640;23.380;2023-03-15T06:01:38;92822.41;;;7.73;56.95
11808;BME280;5961;42.640;23.380;2023-03-15T06:04:05;92814.31;;;7.82;56.61
11808;BME280;5961;42.640;23.380;2023-03-15T06:06:32;92816.59;;;7.83;56.46
11808;BME280;5961;42.640;23.380;2023-03-15T06:08:59;92824.00;;;7.93;55.77
11808;BME280;5961;42.640;23.380;2023-03-15T06:11:27;92821.84;;;7.99;55.68
11808;BME280;5961;42.640;23.380;2023-03-15T06:13:53;92820.84;;;8.03;55.52
11808;BME280;5961;42.640;23.380;2023-03-15T06:16:20;92815.53;;;8.03;55.79
11808;BME280;5961;42.640;23.380;2023-03-15T06:18:47;92806.16;;;8.06;56.13
11808;BME280;5961;42.640;23.380;2023-03-15T06:21:13;92805.94;;;8.14;56.59
11808;BME280;5961;42.640;23.380;2023-03-15T06:23:40;92814.97;;;8.13;57.10
11808;BME280;5961;42.640;23.380;2023-03-15T06:26:07;92821.13;;;8.17;57.50
11808;BME280;5961;42.640;23.380;2023-03-15T06:28:35;92821.41;;;8.12;57.35
11808;BME280;5961;42.640;23.380;2023-03-15T06:31:05;92811.94;;;8.11;56.97
11808;BME280;5961;42.640;23.380;2023-03-15T06:33:32;92781.56;;;8.05;56.70
11808;BME280;5961;42.640;23.380;2023-03-15T06:35:59;92796.63;;;8.20;57.17
11808;BME280;5961;42.640;23.380;2023-03-15T06:38:26;92803.19;;;8.26;57.25
11808;BME280;5961;42.640;23.380;2023-03-15T06:40:53;92810.09;;;8.31;56.55
11808;BME280;5961;42.640;23.380;2023-03-15T06:43:22;92805.56;;;8.32;55.96
11808;BME280;5961;42.640;23.380;2023-03-15T06:45:51;92807.53;;;8.35;56.25
11808;BME280;5961;42.640;23.380;2023-03-15T06:48:20;92801.97;;;8.40;56.88
11808;BME280;5961;42.640;23.380;2023-03-15T06:50:47;92806.56;;;8.43;55.76
11808;BME280;5961;42.640;23.380;2023-03-15T06:53:14;92797.25;;;8.49;56.93
11808;BME280;5961;42.640;23.380;2023-03-15T06:55:41;92804.03;;;8.50;56.44
11808;BME280;5961;42.640;23.380;2023-03-15T06:58:08;92786.69;;;8.52;55.60
11808;BME280;5961;42.640;23.380;2023-03-15T07:00:34;92798.34;;;8.67;55.95
11808;BME280;5961;42.640;23.380;2023-03-15T07:03:03;92788.94;;;8.69;54.66
11808;BME280;5961;42.640;23.380;2023-03-15T07:05:29;92793.72;;;8.83;55.06
11808;BME280;5961;42.640;23.380;2023-03-15T07:07:56;92796.56;;;8.94;54.40
11808;BME280;5961;42.640;23.380;2023-03-15T07:10:23;92795.50;;;8.98;53.86
11808;BME280;5961;42.640;23.380;2023-03-15T07:12:50;92792.34;;;9.12;52.97
11808;BME280;5961;42.640;23.380;2023-03-15T07:15:17;92789.09;;;9.22;53.00
11808;BME280;5961;42.640;23.380;2023-03-15T07:17:43;92785.75;;;9.25;52.47
11808;BME280;5961;42.640;23.380;2023-03-15T07:20:12;92795.44;;;9.36;52.45
11808;BME280;5961;42.640;23.380;2023-03-15T07:22:38;92799.31;;;9.43;52.60
11808;BME280;5961;42.640;23.380;2023-03-15T07:25:06;92787.69;;;9.51;52.07
11808;BME280;5961;42.640;23.380;2023-03-15T07:27:33;92791.22;;;9.58;51.63
11808;BME280;5961;42.640;23.380;2023-03-15T07:30:00;92783.22;;;9.55;50.92
11808;BME280;5961;42.640;23.380;2023-03-15T07:32:27;92789.78;;;9.64;50.79
11808;BME280;5961;42.640;23.380;2023-03-15T07:34:55;92784.56;;;9.68;49.74
11808;BME280;5961;42.640;23.380;2023-03-15T07:37:26;92795.59;;;9.70;49.53
11808;BME280;5961;42.640;23.380;2023-03-15T07:39:53;92801.28;;;9.72;48.14
11808;BME280;5961;42.640;23.380;2023-03-15T07:42:19;92802.91;;;9.80;48.27
11808;BME280;5961;42.640;23.380;2023-03-15T07:44:46;92798.84;;;9.86;47.76
11808;BME280;5961;42.640;23.380;2023-03-15T07:47:13;92799.66;;;9.90;47.75
11808;BME280;5961;42.640;23.380;2023-03-15T07:49:40;92800.06;;;9.92;47.94
11808;BME280;5961;42.640;23.380;2023-03-15T07:52:07;92800.91;;;9.96;48.20
11808;BME280;5961;42.640;23.380;2023-03-15T07:54:35;92793.66;;;9.93;48.11
11808;BME280;5961;42.640;23.380;2023-03-15T07:57:02;92786.41;;;9.90;49.43
11808;BME280;5961;42.640;23.380;2023-03-15T07:59:29;92794.06;;;9.95;49.55
11808;BME280;5961;42.640;23.380;2023-03-15T08:01:56;92790.63;;;9.94;49.77
11808;BME280;5961;42.640;23.380;2023-03-15T08:04:23;92762.78;;;9.81;49.89
11808;BME280;5961;42.640;23.380;2023-03-15T08:06:50;92792.56;;;9.98;49.70
11808;BME280;5961;42.640;23.380;2023-03-15T08:09:17;92799.47;;;10.02;50.54
11808;BME280;5961;42.640;23.380;2023-03-15T08:11:45;92780.06;;;9.98;50.87
11808;BME280;5961;42.640;23.380;2023-03-15T08:14:12;92787.81;;;10.10;50.54
11808;BME280;5961;42.640;23.380;2023-03-15T08:16:39;92780.72;;;10.14;50.27
11808;BME280;5961;42.640;23.380;2023-03-15T08:19:05;92768.66;;;10.20;50.75
11808;BME280;5961;42.640;23.380;2023-03-15T08:21:33;92760.41;;;10.29;50.25
11808;BME280;5961;42.640;23.380;2023-03-15T08:24:00;92762.06;;;10.40;49.71
11808;BME280;5961;42.640;23.380;2023-03-15T08:26:27;92764.81;;;10.48;49.02
11808;BME280;5961;42.640;23.380;2023-03-15T08:28:55;92767.09;;;10.49;48.74
11808;BME280;5961;42.640;23.380;2023-03-15T08:31:22;92755.31;;;10.46;47.61
11808;BME280;5961;42.640;23.380;2023-03-15T08:33:49;92768.25;;;10.52;47.09
11808;BME280;5961;42.640;23.380;2023-03-15T08:36:15;92767.06;;;10.45;47.36
11808;BME280;5961;42.640;23.380;2023-03-15T08:38:42;92771.97;;;10.43;46.97
11808;BME280;5961;42.640;23.380;2023-03-15T08:41:09;92759.81;;;10.42;47.11
11808;BME280;5961;42.640;23.380;2023-03-15T08:43:35;92759.84;;;10.46;46.33
11808;BME280;5961;42.640;23.380;2023-03-15T08:46:04;92759.19;;;10.53;46.46
11808;BME280;5961;42.640;23.380;2023-03-15T08:48:30;92753.97;;;10.60;46.82
11808;BME280;5961;42.640;23.380;2023-03-15T08:51:01;92758.16;;;10.64;47.76
11808;BME280;5961;42.640;23.380;2023-03-15T08:53:28;92755.13;;;10.62;48.43
11808;BME280;5961;42.640;23.380;2023-03-15T08:55:55;92763.53;;;10.68;47.72
11808;BME280;5961;42.640;23.380;2023-03-15T08:58:23;92762.41;;;10.69;47.12
11808;BME280;5961;42.640;23.380;2023-03-15T09:00:50;92773.47;;;10.74;47.53
11808;BME280;5961;42.640;23.380;2023-03-15T09:03:18;92757.88;;;10.69;47.46
11808;BME280;5961;42.640;23.380;2023-03-15T09:05:47;92769.41;;;10.84;47.58
11808;BME280;5961;42.640;23.380;2023-03-15T09:08:13;92767.97;;;10.90;47.85
11808;BME280;5961;42.640;23.380;2023-03-15T09:10:41;92765.72;;;10.95;47.53
11808;BME280;5961;42.640;23.380;2023-03-15T09:13:08;92776.78;;;11.01;47.37
11808;BME280;5961;42.640;23.380;2023-03-15T09:15:35;92771.88;;;11.03;47.47
11808;BME280;5961;42.640;23.380;2023-03-15T09:18:02;92772.63;;;11.03;47.26
11808;BME280;5961;42.640;23.380;2023-03-15T09:20:30;92774.22;;;11.08;47.49
11808;BME280;5961;42.640;23.380;2023-03-15T09:22:57;92781.84;;;11.13;46.35
11808;BME280;5961;42.640;23.380;2023-03-15T09:25:24;92747.56;;;11.01;45.55
11808;BME280;5961;42.640;23.380;2023-03-15T09:27:51;92775.84;;;11.20;47.21
11808;BME280;5961;42.640;23.380;2023-03-15T09:30:18;92760.97;;;11.15;46.13
11808;BME280;5961;42.640;23.380;2023-03-15T09:32:45;92757.22;;;11.20;47.36
11808;BME280;5961;42.640;23.380;2023-03-15T09:35:13;92770.66;;;11.34;46.26
11808;BME280;5961;42.640;23.380;2023-03-15T09:37:41;92763.50;;;11.41;46.05
11808;BME280;5961;42.640;23.380;2023-03-15T09:40:14;92760.50;;;11.46;45.11
11808;BME280;5961;42.640;23.380;2023-03-15T09:43:00;92753.72;;;11.52;45.26
11808;BME280;5961;42.640;23.380;2023-03-15T09:45:34;92744.25;;;11.58;45.16
11808;BME280;5961;42.640;23.380;2023-03-15T09:48:08;92739.66;;;11.55;45.24
11808;BME280;5961;42.640;23.380;2023-03-15T09:50:41;92737.03;;;11.59;44.96
11808;BME280;5961;42.640;23.380;2023-03-15T09:53:14;92739.00;;;11.66;44.93
11808;BME280;5961;42.640;23.380;2023-03-15T09:55:43;92751.97;;;11.71;45.01
11808;BME280;5961;42.640;23.380;2023-03-15T09:58:14;92732.94;;;11.69;44.83
11808;BME280;5961;42.640;23.380;2023-03-15T10:00:45;92726.84;;;11.68;45.25
11808;BME280;5961;42.640;23.380;2023-03-15T10:03:17;92721.56;;;11.72;44.79
11808;BME280;5961;42.640;23.380;2023-03-15T10:05:48;92737.59;;;11.82;44.92
11808;BME280;5961;42.640;23.380;2023-03-15T10:08:19;92730.38;;;11.83;44.73
11808;BME280;5961;42.640;23.380;2023-03-15T10:10:50;92740.31;;;11.89;45.01
11808;BME280;5961;42.640;23.380;2023-03-15T10:13:38;92738.44;;;11.93;45.21
11808;BME280;5961;42.640;23.380;2023-03-15T10:16:17;92739.19;;;11.94;44.05
11808;BME280;5961;42.640;23.380;2023-03-15T10:18:58;92741.47;;;11.92;44.08
11808;BME280;5961;42.640;23.380;2023-03-15T10:21:33;92721.31;;;11.87;43.98
11808;BME280;5961;42.640;23.380;2023-03-15T10:24:11;92731.19;;;11.94;44.48
11808;BME280;5961;42.640;23.380;2023-03-15T10:26:41;92738.06;;;11.95;44.05
11808;BME280;5961;42.640;23.380;2023-03-15T10:29:14;92729.69;;;11.93;45.48
11808;BME280;5961;42.640;23.380;2023-03-15T10:31:43;92727.06;;;12.00;44.29
11808;BME280;5961;42.640;23.380;2023-03-15T10:34:13;92670.94;;;11.65;44.14
11808;BME280;5961;42.640;23.380;2023-03-15T10:36:47;92722.47;;;11.97;43.49
11808;BME280;5961;42.640;23.380;2023-03-15T10:39:20;92685.38;;;11.67;44.44
11808;BME280;5961;42.640;23.380;2023-03-15T10:41:48;92725.53;;;11.95;44.51
11808;BME280;5961;42.640;23.380;2023-03-15T10:44:18;92723.97;;;11.91;44.55
11808;BME280;5961;42.640;23.380;2023-03-15T10:46:59;92732.34;;;11.93;44.43
11808;BME280;5961;42.640;23.380;2023-03-15T10:49:32;92724.72;;;11.91;45.07
11808;BME280;5961;42.640;23.380;2023-03-15T10:51:59;92727.78;;;11.90;45.04
11808;BME280;5961;42.640;23.380;2023-03-15T10:54:30;92728.91;;;11.89;44.42
11808;BME280;5961;42.640;23.380;2023-03-15T10:56:59;92715.53;;;11.82;44.62
11808;BME280;5961;42.640;23.380;2023-03-15T10:59:29;92728.09;;;11.85;44.68
11808;BME280;5961;42.640;23.380;2023-03-15T11:02:14;92726.94;;;11.82;44.09
11808;BME280;5961;42.640;23.380;2023-03-15T11:04:47;92719.72;;;11.83;44.11
11808;BME280;5961;42.640;23.380;2023-03-15T11:07:14;92717.84;;;11.83;43.99
11808;BME280;5961;42.640;23.380;2023-03-15T11:09:43;92721.66;;;11.86;44.59
11808;BME280;5961;42.640;23.380;2023-03-15T11:12:19;92713.28;;;11.84;44.76
11808;BME280;5961;42.640;23.380;2023-03-15T11:14:49;92715.53;;;11.82;43.63
11808;BME280;5961;42.640;23.380;2023-03-15T11:17:19;92723.19;;;11.87;44.90
11808;BME280;5961;42.640;23.380;2023-03-15T11:19:52;92712.53;;;11.87;44.16
11808;BME280;5961;42.640;23.380;2023-03-15T11:22:20;92719.38;;;11.88;43.72
11808;BME280;5961;42.640;23.380;2023-03-15T11:24:48;92713.31;;;11.91;44.28
11808;BME280;5961;42.640;23.380;2023-03-15T11:27:16;92717.16;;;11.93;45.15
11808;BME280;5961;42.640;23.380;2023-03-15T11:29:48;92680.88;;;11.71;44.59
11808;BME280;5961;42.640;23.380;2023-03-15T11:32:18;92706.91;;;11.99;44.36
11808;BME280;5961;42.640;23.380;2023-03-15T11:34:49;92711.91;;;12.07;45.42
11808;BME280;5961;42.640;23.380;2023-03-15T11:37:21;92700.88;;;12.13;45.19
11808;BME280;5961;42.640;23.380;2023-03-15T11:39:54;92704.34;;;12.17;45.12
11808;BME280;5961;42.640;23.380;2023-03-15T11:42:26;92703.19;;;12.14;44.09
11808;BME280;5961;42.640;23.380;2023-03-15T11:44:57;92702.06;;;12.22;44.21
11808;BME280;5961;42.640;23.380;2023-03-15T11:47:34;92707.44;;;12.29;43.00
11808;BME280;5961;42.640;23.380;2023-03-15T11:50:04;92700.59;;;12.32;44.13
11808;BME280;5961;42.640;23.380;2023-03-15T11:52:31;92704.41;;;12.34;42.56
11808;BME280;5961;42.640;23.380;2023-03-15T11:55:00;92660.91;;;12.02;44.13
11808;BME280;5961;42.640;23.380;2023-03-15T11:57:41;92703.66;;;12.37;44.01
11808;BME280;5961;42.640;23.380;2023-03-15T12:00:17;92701.38;;;12.39;43.24
11808;BME280;5961;42.640;23.380;2023-03-15T12:02:49;92687.63;;;12.23;43.62
11808;BME280;5961;42.640;23.380;2023-03-15T12:05:40;92704.44;;;12.41;44.57
11808;BME280;5961;42.640;23.380;2023-03-15T12:08:20;92686.94;;;12.40;44.21
11808;BME280;5961;42.640;23.380;2023-03-15T12:10:50;92680.47;;;12.41;43.46
11808;BME280;5961;42.640;23.380;2023-03-15T12:13:26;92667.91;;;12.38;44.04
11808;BME280;5961;42.640;23.380;2023-03-15T12:15:53;92646.50;;;12.17;43.88
11808;BME280;5961;42.640;23.380;2023-03-15T12:18:37;92669.81;;;12.41;43.84
11808;BME280;5961;42.640;23.380;2023-03-15T12:21:14;92660.69;;;12.39;44.01
11808;BME280;5961;42.640;23.380;2023-03-15T12:23:47;92669.41;;;12.39;43.25
11808;BME280;5961;42.640;23.380;2023-03-15T12:26:30;92672.09;;;12.43;43.53
11808;BME280;5961;42.640;23.380;2023-03-15T12:29:05;92674.00;;;12.39;43.91
11808;BME280;5961;42.640;23.380;2023-03-15T12:31:45;92665.22;;;12.38;44.23
11808;BME280;5961;42.640;23.380;2023-03-15T12:34:23;92673.22;;;12.38;44.06
11808;BME280;5961;42.640;23.380;2023-03-15T12:36:53;92666.34;;;12.27;44.84
11808;BME280;5961;42.640;23.380;2023-03-15T12:39:39;92663.66;;;12.30;44.15
11808;BME280;5961;42.640;23.380;2023-03-15T12:42:13;92632.00;;;12.04;44.12
11808;BME280;5961;42.640;23.380;2023-03-15T12:45:33;92660.25;;;12.30;45.09
11808;BME280;5961;42.640;23.380;2023-03-15T12:48:25;92658.72;;;12.29;44.93
11808;BME280;5961;42.640;23.380;2023-03-15T12:50:58;92660.25;;;12.26;45.08
11808;BME280;5961;42.640;23.380;2023-03-15T12:53:35;92664.41;;;12.20;45.23
11808;BME280;5961;42.640;23.380;2023-03-15T12:56:29;92668.22;;;12.23;45.04
11808;BME280;5961;42.640;23.380;2023-03-15T12:59:03;92666.66;;;12.18;45.38
11808;BME280;5961;42.640;23.380;2023-03-15T13:01:31;92662.50;;;12.17;45.40
11808;BME280;5961;42.640;23.380;2023-03-15T13:03:58;92659.41;;;12.15;44.63
11808;BME280;5961;42.640;23.380;2023-03-15T13:06:34;92662.50;;;12.17;44.57
11808;BME280;5961;42.640;23.380;2023-03-15T13:09:12;92650.31;;;12.16;45.74
11808;BME280;5961;42.640;23.380;2023-03-15T13:11:48;92651.06;;;12.17;45.50
11808;BME280;5961;42.640;23.380;2023-03-15T13:14:35;92651.84;;;12.21;45.93
11808;BME280;5961;42.640;23.380;2023-03-15T13:17:08;92648.78;;;12.19;45.69
11808;BME280;5961;42.640;23.380;2023-03-15T13:19:44;92654.16;;;12.26;45.22